createdAt,value
2023-02-14T00:00:57.277Z,100553.40
2023-02-14T00:03:24.075Z,100559.40
2023-02-14T00:05:50.778Z,100560.80
2023-02-14T00:08:17.175Z,100557.80
2023-02-14T00:10:43.616Z,100558.20
2023-02-14T00:13:10.076Z,100558.00
2023-02-14T00:15:36.572Z,100552.00
2023-02-14T00:18:03.504Z,100547.80
2023-02-14T00:20:30.154Z,100550.80
2023-02-14T00:22:56.654Z,100549.80
2023-02-14T00:25:23.245Z,100541.40
2023-02-14T00:27:49.874Z,100540.00
2023-02-14T00:30:16.504Z,100550.80
2023-02-14T00:32:43.415Z,100545.40
2023-02-14T00:35:10.714Z,100546.40
2023-02-14T00:37:37.806Z,100551.40
2023-02-14T00:40:07.077Z,100548.40
2023-02-14T00:42:33.830Z,100549.80
2023-02-14T00:45:00.645Z,100540.60
2023-02-14T00:47:27.136Z,100550.60
2023-02-14T00:49:53.695Z,100554.20
2023-02-14T00:52:20.223Z,100559.80
2023-02-14T00:54:46.677Z,100555.60
2023-02-14T00:57:13.215Z,100555.80
2023-02-14T00:59:39.683Z,100562.20
2023-02-14T01:02:06.335Z,100569.00
2023-02-14T01:04:32.893Z,100557.80
2023-02-14T01:06:59.271Z,100553.60
2023-02-14T01:09:25.769Z,100549.00
2023-02-14T01:11:52.300Z,100546.40
2023-02-14T01:14:18.740Z,100545.80
2023-02-14T01:16:45.340Z,100543.20
2023-02-14T01:19:11.831Z,100546.80
2023-02-14T01:21:38.411Z,100548.60
2023-02-14T01:24:08.085Z,100551.60
2023-02-14T01:26:36.016Z,100551.20
2023-02-14T01:29:04.889Z,100544.20
2023-02-14T01:31:34.819Z,100537.60
2023-02-14T01:34:01.894Z,100540.00
2023-02-14T01:36:36.717Z,100540.40
2023-02-14T01:39:12.667Z,100542.00
2023-02-14T01:41:42.410Z,100537.60
2023-02-14T01:44:29.125Z,100536.40
2023-02-14T01:46:56.609Z,100534.00
2023-02-14T01:49:31.859Z,100530.20
2023-02-14T01:52:14.098Z,100530.00
2023-02-14T01:54:49.087Z,100540.60
2023-02-14T01:57:19.418Z,100538.20
2023-02-14T01:59:55.853Z,100538.60
2023-02-14T02:02:24.041Z,100538.40
2023-02-14T02:04:55.866Z,100533.00
2023-02-14T02:07:26.512Z,100539.00
2023-02-14T02:10:01.088Z,100534.80
2023-02-14T02:12:30.472Z,100546.00
2023-02-14T02:14:59.865Z,100541.80
2023-02-14T02:17:42.179Z,100544.20
2023-02-14T02:20:39.429Z,100542.20
2023-02-14T02:23:57.345Z,100541.80
2023-02-14T02:26:58.479Z,100536.40
2023-02-14T02:30:04.014Z,100539.20
2023-02-14T02:33:07.332Z,100542.00
2023-02-14T02:36:01.885Z,100533.80
2023-02-14T02:38:48.469Z,100543.40
2023-02-14T02:41:46.515Z,100543.00
2023-02-14T02:44:47.451Z,100539.00
2023-02-14T02:47:44.668Z,100533.20
2023-02-14T02:50:59.329Z,100540.40
2023-02-14T02:53:48.396Z,100543.20
2023-02-14T02:56:49.750Z,100546.00
2023-02-14T02:59:23.988Z,100542.20
2023-02-14T03:02:15.339Z,100548.80
2023-02-14T03:04:55.290Z,100553.60
2023-02-14T03:07:39.768Z,100551.80
2023-02-14T03:10:24.579Z,100550.20
2023-02-14T03:13:09.429Z,100559.80
2023-02-14T03:15:47.829Z,100557.80
2023-02-14T03:19:13.238Z,100561.20
2023-02-14T03:22:06.600Z,100571.20
2023-02-14T03:24:56.219Z,100573.40
2023-02-14T03:27:37.055Z,100577.40
2023-02-14T03:30:21.652Z,100577.40
2023-02-14T03:33:12.644Z,100582.40
2023-02-14T03:35:51.323Z,100579.80
2023-02-14T03:38:41.837Z,100583.80
2023-02-14T03:41:18.153Z,100587.20
2023-02-14T03:43:52.542Z,100592.20
2023-02-14T03:46:22.090Z,100589.20
2023-02-14T03:48:53.284Z,100579.80
2023-02-14T03:51:24.003Z,100595.60
2023-02-14T03:53:56.814Z,100588.60
2023-02-14T03:56:44.053Z,100579.80
2023-02-14T03:59:19.558Z,100575.60
2023-02-14T04:01:49.818Z,100572.40
2023-02-14T04:04:24.176Z,100578.40
2023-02-14T04:06:51.054Z,100581.40
2023-02-14T04:09:17.729Z,100586.20
2023-02-14T04:11:46.421Z,100584.20
2023-02-14T04:14:13.049Z,100584.60
2023-02-14T04:16:58.923Z,100587.00
2023-02-14T04:19:25.640Z,100594.00
2023-02-14T04:21:53.394Z,100590.20
2023-02-14T04:24:20.599Z,100597.20
2023-02-14T04:27:12.300Z,100588.20
2023-02-14T04:29:45.788Z,100590.60
2023-02-14T04:32:19.438Z,100591.60
2023-02-14T04:34:46.500Z,100587.40
2023-02-14T04:37:16.522Z,100591.40
2023-02-14T04:39:43.018Z,100588.40
2023-02-14T04:42:09.866Z,100586.00
2023-02-14T04:44:38.317Z,100583.00
2023-02-14T04:47:05.960Z,100583.60
2023-02-14T04:49:32.858Z,100581.60
2023-02-14T04:51:59.618Z,100593.00
2023-02-14T04:54:26.162Z,100588.40
2023-02-14T04:56:53.137Z,100596.60
2023-02-14T04:59:19.676Z,100592.60
2023-02-14T05:01:46.347Z,100593.60
2023-02-14T05:04:12.886Z,100592.80
2023-02-14T05:06:39.516Z,100598.60
2023-02-14T05:09:06.139Z,100603.60
2023-02-14T05:11:32.939Z,100595.00
2023-02-14T05:13:59.761Z,100590.40
2023-02-14T05:16:26.471Z,100596.60
2023-02-14T05:18:53.067Z,100602.60
2023-02-14T05:21:19.839Z,100598.40
2023-02-14T05:23:46.481Z,100591.20
2023-02-14T05:26:12.940Z,100597.00
2023-02-14T05:28:41.109Z,100600.40
2023-02-14T05:31:09.422Z,100599.60
2023-02-14T05:33:36.516Z,100600.60
2023-02-14T05:36:03.990Z,100610.80
2023-02-14T05:38:31.134Z,100606.20
2023-02-14T05:40:57.808Z,100611.60
2023-02-14T05:43:24.606Z,100617.00
2023-02-14T05:45:51.137Z,100622.60
2023-02-14T05:48:18.286Z,100624.00
2023-02-14T05:50:45.557Z,100620.40
2023-02-14T05:53:13.544Z,100624.80
2023-02-14T05:55:40.422Z,100624.00
2023-02-14T05:58:08.073Z,100628.40
2023-02-14T06:00:34.748Z,100625.80
2023-02-14T06:03:01.513Z,100630.00
2023-02-14T06:05:28.088Z,100625.20
2023-02-14T06:07:54.614Z,100630.20
2023-02-14T06:10:24.536Z,100634.40
2023-02-14T06:12:53.367Z,100628.40
2023-02-14T06:15:20.828Z,100641.40
2023-02-14T06:17:55.670Z,100642.80
2023-02-14T06:20:24.320Z,100650.20
2023-02-14T06:22:51.832Z,100642.40
2023-02-14T06:25:18.851Z,100640.20
2023-02-14T06:27:45.934Z,100637.60
2023-02-14T06:30:14.254Z,100641.40
2023-02-14T06:32:40.707Z,100645.20
2023-02-14T06:35:08.126Z,100638.60
2023-02-14T06:37:34.864Z,100645.00
2023-02-14T06:40:01.827Z,100650.00
2023-02-14T06:42:28.440Z,100652.80
2023-02-14T06:44:54.911Z,100649.00
2023-02-14T06:47:21.340Z,100651.40
2023-02-14T06:49:47.825Z,100652.40
2023-02-14T06:52:14.288Z,100661.20
2023-02-14T06:54:40.970Z,100657.80
2023-02-14T06:57:07.635Z,100658.00
2023-02-14T06:59:34.105Z,100659.60
2023-02-14T07:02:00.657Z,100664.20
2023-02-14T07:04:27.200Z,100664.20
2023-02-14T07:06:53.649Z,100665.00
2023-02-14T07:09:20.183Z,100663.60
2023-02-14T07:11:46.989Z,100661.40
2023-02-14T07:14:13.953Z,100662.60
2023-02-14T07:16:40.465Z,100668.40
2023-02-14T07:19:06.962Z,100670.60
2023-02-14T07:24:14.378Z,100662.80
2023-02-14T07:26:41.889Z,100661.80
2023-02-14T07:29:09.006Z,100669.80
2023-02-14T07:31:35.712Z,100668.60
2023-02-14T07:34:03.307Z,100672.80
2023-02-14T07:36:29.831Z,100666.40
2023-02-14T07:38:56.931Z,100666.40
2023-02-14T07:41:24.030Z,100671.60
2023-02-14T07:43:50.515Z,100673.60
2023-02-14T07:46:17.753Z,100667.60
2023-02-14T07:48:45.284Z,100670.40
2023-02-14T07:51:11.939Z,100676.80
2023-02-14T07:53:38.475Z,100683.00
2023-02-14T07:56:05.207Z,100683.60
2023-02-14T07:58:31.664Z,100677.60
2023-02-14T08:00:59.653Z,100681.20
2023-02-14T08:03:26.451Z,100672.80
2023-02-14T08:05:57.062Z,100674.80
2023-02-14T08:08:29.551Z,100674.60
2023-02-14T08:10:57.040Z,100671.00
2023-02-14T08:13:24.457Z,100674.20
2023-02-14T08:16:06.542Z,100679.40
2023-02-14T08:18:40.794Z,100679.00
2023-02-14T08:21:10.688Z,100680.20
2023-02-14T08:23:38.958Z,100682.00
2023-02-14T08:26:06.051Z,100692.80
2023-02-14T08:28:33.330Z,100691.00
2023-02-14T08:31:00.516Z,100686.40
2023-02-14T08:33:27.341Z,100688.20
2023-02-14T08:35:54.391Z,100696.60
2023-02-14T08:38:20.953Z,100701.40
2023-02-14T08:40:47.749Z,100695.40
2023-02-14T08:43:15.478Z,100697.20
2023-02-14T08:45:41.923Z,100698.20
2023-02-14T08:48:12.542Z,100704.60
2023-02-14T08:50:40.765Z,100706.40
2023-02-14T08:53:13.437Z,100699.80
2023-02-14T08:55:40.621Z,100702.20
2023-02-14T08:58:08.298Z,100700.60
2023-02-14T09:00:36.240Z,100702.00
2023-02-14T09:03:03.527Z,100710.00
2023-02-14T09:05:30.089Z,100707.20
2023-02-14T09:07:57.287Z,100707.00
2023-02-14T09:10:25.265Z,100711.00
2023-02-14T09:12:52.692Z,100710.80
2023-02-14T09:15:20.208Z,100707.00
2023-02-14T09:17:46.981Z,100713.60
2023-02-14T09:20:15.580Z,100711.80
2023-02-14T09:22:42.160Z,100709.60
2023-02-14T09:25:08.780Z,100712.00
2023-02-14T09:27:35.716Z,100715.20
2023-02-14T09:30:02.919Z,100717.80
2023-02-14T09:32:29.549Z,100718.00
2023-02-14T09:34:56.204Z,100718.80
2023-02-14T09:37:41.758Z,100730.60
2023-02-14T09:40:12.782Z,100737.20
2023-02-14T09:43:01.970Z,100737.00
2023-02-14T09:45:32.186Z,100730.40
2023-02-14T09:48:12.820Z,100734.80
2023-02-14T09:50:54.679Z,100737.60
2023-02-14T09:53:39.396Z,100731.00
2023-02-14T09:56:27.360Z,100737.20
2023-02-14T09:59:19.515Z,100736.80
2023-02-14T10:02:01.232Z,100736.80
2023-02-14T10:04:39.884Z,100731.60
2023-02-14T10:07:27.508Z,100737.40
2023-02-14T10:10:31.152Z,100734.20
2023-02-14T10:13:19.089Z,100740.60
2023-02-14T10:15:53.659Z,100735.40
2023-02-14T10:18:38.432Z,100731.00
2023-02-14T10:21:09.297Z,100729.00
2023-02-14T10:23:49.084Z,100723.80
2023-02-14T10:26:33.253Z,100728.20
2023-02-14T10:28:59.736Z,100723.20
2023-02-14T10:31:37.892Z,100728.40
2023-02-14T10:34:22.542Z,100726.80
2023-02-14T10:37:23.547Z,100727.80
2023-02-14T10:40:18.536Z,100722.20
2023-02-14T10:43:03.732Z,100720.60
2023-02-14T10:46:18.997Z,100721.20
2023-02-14T10:49:13.036Z,100729.20
2023-02-14T10:52:19.424Z,100730.60
2023-02-14T10:54:55.783Z,100722.20
2023-02-14T10:57:32.143Z,100725.80
2023-02-14T11:00:08.744Z,100720.60
2023-02-14T11:02:51.086Z,100717.60
2023-02-14T11:05:29.944Z,100722.20
2023-02-14T11:07:59.370Z,100728.80
2023-02-14T11:10:34.025Z,100721.20
2023-02-14T11:13:00.683Z,100722.80
2023-02-14T11:15:35.849Z,100702.40
2023-02-14T11:18:23.980Z,100710.20
2023-02-14T11:21:02.822Z,100701.80
2023-02-14T11:23:36.413Z,100702.20
2023-02-14T11:26:10.462Z,100696.20
2023-02-14T11:28:58.110Z,100698.00
2023-02-14T11:31:31.886Z,100696.00
2023-02-14T11:34:02.926Z,100699.20
2023-02-14T11:36:33.682Z,100699.00
2023-02-14T11:39:21.946Z,100695.00
2023-02-14T11:41:58.794Z,100693.80
2023-02-14T11:44:29.497Z,100690.40
2023-02-14T11:47:17.839Z,100689.20
2023-02-14T11:49:57.326Z,100694.60
2023-02-14T11:52:29.583Z,100693.40
2023-02-14T11:54:58.420Z,100692.00
2023-02-14T11:57:33.087Z,100688.80
2023-02-14T12:00:04.980Z,100680.80
2023-02-14T12:02:49.095Z,100684.20
2023-02-14T12:05:31.600Z,100686.40
2023-02-14T12:08:10.588Z,100684.80
2023-02-14T12:10:42.412Z,100683.60
2023-02-14T12:13:08.866Z,100681.40
2023-02-14T12:15:44.348Z,100681.00
2023-02-14T12:18:55.752Z,100681.00
2023-02-14T12:21:44.308Z,100673.60
2023-02-14T12:24:26.525Z,100672.00
2023-02-14T12:27:37.785Z,100675.40
2023-02-14T12:30:18.427Z,100669.20
2023-02-14T12:32:56.483Z,100667.60
2023-02-14T12:36:04.058Z,100666.00
2023-02-14T12:38:55.911Z,100674.60
2023-02-14T12:41:36.880Z,100672.60
2023-02-14T12:44:36.062Z,100672.40
2023-02-14T12:47:15.389Z,100678.60
2023-02-14T12:50:24.009Z,100664.60
2023-02-14T12:53:22.755Z,100669.40
2023-02-14T12:56:32.144Z,100664.40
2023-02-14T12:59:26.356Z,100671.80
2023-02-14T13:02:19.898Z,100661.60
2023-02-14T13:06:00.190Z,100669.80
2023-02-14T13:09:02.672Z,100662.60
2023-02-14T13:11:45.637Z,100663.80
2023-02-14T13:14:44.809Z,100665.60
2023-02-14T13:17:44.745Z,100665.20
2023-02-14T13:20:17.192Z,100660.20
2023-02-14T13:22:43.948Z,100664.40
2023-02-14T13:25:34.027Z,100663.40
2023-02-14T13:28:07.046Z,100657.60
2023-02-14T13:30:42.080Z,100662.20
2023-02-14T13:33:35.151Z,100665.40
2023-02-14T13:36:10.293Z,100665.80
2023-02-14T13:38:51.813Z,100673.40
2023-02-14T13:41:22.304Z,100679.80
2023-02-14T13:44:02.591Z,100672.60
2023-02-14T13:46:32.188Z,100668.80
2023-02-14T13:49:09.440Z,100661.60
2023-02-14T13:51:51.639Z,100666.20
2023-02-14T13:54:42.908Z,100656.80
2023-02-14T13:57:33.952Z,100663.60
2023-02-14T14:00:21.519Z,100661.20
2023-02-14T14:02:52.912Z,100652.20
2023-02-14T14:05:35.448Z,100656.80
2023-02-14T14:08:23.957Z,100658.20
2023-02-14T14:10:59.425Z,100661.60
2023-02-14T14:13:41.299Z,100660.00
2023-02-14T14:16:36.440Z,100659.20
2023-02-14T14:19:24.977Z,100660.40
2023-02-14T14:22:22.229Z,100667.20
2023-02-14T14:25:11.322Z,100671.40
2023-02-14T14:27:45.956Z,100666.80
2023-02-14T14:30:23.754Z,100670.40
2023-02-14T14:32:51.678Z,100676.40
2023-02-14T14:35:25.427Z,100672.20
2023-02-14T14:38:01.208Z,100670.80
2023-02-14T14:40:35.580Z,100670.40
2023-02-14T14:43:12.955Z,100673.80
2023-02-14T14:45:43.116Z,100673.20
2023-02-14T14:48:17.016Z,100664.60
2023-02-14T14:50:48.923Z,100667.60
2023-02-14T14:53:25.324Z,100667.60
2023-02-14T14:55:53.158Z,100667.20
2023-02-14T14:58:38.036Z,100664.40
2023-02-14T15:01:08.422Z,100662.20
2023-02-14T15:03:35.132Z,100667.60
2023-02-14T15:06:19.564Z,100668.80
2023-02-14T15:08:48.669Z,100669.60
2023-02-14T15:11:45.670Z,100671.80
2023-02-14T15:14:22.667Z,100667.20
2023-02-14T15:17:15.815Z,100663.00
2023-02-14T15:19:48.021Z,100666.40
2023-02-14T15:22:29.819Z,100669.00
2023-02-14T15:24:58.701Z,100662.20
2023-02-14T15:27:28.398Z,100666.20
2023-02-14T15:30:02.528Z,100665.00
2023-02-14T15:32:36.394Z,100670.40
2023-02-14T15:35:06.848Z,100667.40
2023-02-14T15:37:34.188Z,100667.80
2023-02-14T15:40:02.049Z,100669.20
2023-02-14T15:42:33.250Z,100676.80
2023-02-14T15:45:27.949Z,100680.40
2023-02-14T15:48:15.597Z,100681.40
2023-02-14T15:50:49.374Z,100679.80
2023-02-14T15:53:50.156Z,100685.20
2023-02-14T15:56:26.191Z,100677.60
2023-02-14T15:59:04.803Z,100686.60
2023-02-14T16:01:34.190Z,100684.20
2023-02-14T16:04:05.838Z,100686.00
2023-02-14T16:06:48.054Z,100688.40
2023-02-14T16:09:28.453Z,100697.40
2023-02-14T16:11:55.524Z,100691.40
2023-02-14T16:14:35.269Z,100697.00
2023-02-14T16:17:12.949Z,100697.20
2023-02-14T16:19:45.711Z,100698.40
2023-02-14T16:22:26.215Z,100699.80
2023-02-14T16:24:52.591Z,100696.00
2023-02-14T16:27:19.139Z,100693.40
2023-02-14T16:29:45.583Z,100695.20
2023-02-14T16:32:19.990Z,100698.20
2023-02-14T16:34:47.616Z,100698.80
2023-02-14T16:37:30.081Z,100707.00
2023-02-14T16:39:57.729Z,100709.00
2023-02-14T16:42:24.964Z,100705.00
2023-02-14T16:44:51.585Z,100698.40
2023-02-14T16:47:20.820Z,100701.80
2023-02-14T16:49:47.765Z,100703.20
2023-02-14T16:52:25.399Z,100703.00
2023-02-14T16:54:54.979Z,100700.60
2023-02-14T16:57:29.498Z,100701.40
2023-02-14T16:59:56.929Z,100704.20
2023-02-14T17:02:28.084Z,100703.80
2023-02-14T17:04:54.775Z,100706.80
2023-02-14T17:07:21.553Z,100704.60
2023-02-14T17:09:54.796Z,100707.00
2023-02-14T17:12:31.200Z,100709.80
2023-02-14T17:15:06.047Z,100712.80
2023-02-14T17:17:36.089Z,100712.20
2023-02-14T17:20:06.250Z,100714.00
2023-02-14T17:22:34.145Z,100714.60
2023-02-14T17:25:00.790Z,100718.00
2023-02-14T17:27:27.263Z,100710.60
2023-02-14T17:29:54.008Z,100712.00
2023-02-14T17:32:20.610Z,100713.60
2023-02-14T17:34:50.367Z,100710.20
2023-02-14T17:37:18.868Z,100714.00
2023-02-14T17:39:45.660Z,100707.60
2023-02-14T17:42:12.261Z,100707.40
2023-02-14T17:44:39.354Z,100706.40
2023-02-14T17:47:06.467Z,100702.80
2023-02-14T17:49:33.000Z,100705.00
2023-02-14T17:51:59.495Z,100704.80
2023-02-14T17:54:26.071Z,100705.60
2023-02-14T17:56:52.544Z,100701.40
2023-02-14T17:59:19.040Z,100708.80
2023-02-14T18:01:45.467Z,100706.80
2023-02-14T18:04:12.254Z,100704.00
2023-02-14T18:06:40.109Z,100705.60
2023-02-14T18:09:06.942Z,100706.80
2023-02-14T18:11:33.797Z,100703.00
2023-02-14T18:14:01.618Z,100700.40
2023-02-14T18:16:28.221Z,100701.60
2023-02-14T18:18:54.947Z,100705.20
2023-02-14T18:21:23.254Z,100696.40
2023-02-14T18:23:49.972Z,100695.80
2023-02-14T18:26:18.472Z,100696.60
2023-02-14T18:28:45.352Z,100700.40
2023-02-14T18:31:18.145Z,100700.60
2023-02-14T18:33:46.548Z,100709.80
2023-02-14T18:36:17.702Z,100713.20
2023-02-14T18:38:47.050Z,100712.20
2023-02-14T18:41:18.078Z,100705.80
2023-02-14T18:43:45.053Z,100710.80
2023-02-14T18:46:20.413Z,100706.20
2023-02-14T18:48:47.184Z,100703.80
2023-02-14T18:51:21.299Z,100710.80
2023-02-14T18:53:52.091Z,100709.60
2023-02-14T18:56:25.757Z,100705.60
2023-02-14T18:58:57.452Z,100705.40
2023-02-14T19:01:29.543Z,100706.40
2023-02-14T19:03:59.492Z,100707.00
2023-02-14T19:06:29.407Z,100705.40
2023-02-14T19:08:57.001Z,100704.60
2023-02-14T19:11:28.165Z,100695.80
2023-02-14T19:13:58.359Z,100697.00
2023-02-14T19:16:33.355Z,100695.80
2023-02-14T19:19:02.323Z,100691.20
2023-02-14T19:21:33.673Z,100690.60
2023-02-14T19:24:02.539Z,100687.60
2023-02-14T19:26:37.101Z,100689.40
2023-02-14T19:29:08.488Z,100693.20
2023-02-14T19:31:37.966Z,100691.40
2023-02-14T19:34:07.565Z,100693.40
2023-02-14T19:36:39.123Z,100691.00
2023-02-14T19:39:05.802Z,100694.40
2023-02-14T19:41:36.914Z,100696.20
2023-02-14T19:44:06.707Z,100689.80
2023-02-14T19:46:34.056Z,100697.20
2023-02-14T19:49:02.560Z,100687.20
2023-02-14T19:51:36.035Z,100688.60
2023-02-14T19:54:07.083Z,100692.00
2023-02-14T19:56:38.627Z,100690.80
2023-02-14T19:59:14.327Z,100692.40
2023-02-14T20:01:46.292Z,100694.00
2023-02-14T20:04:20.148Z,100690.60
2023-02-14T20:06:49.326Z,100687.40
2023-02-14T20:09:16.890Z,100686.40
2023-02-14T20:11:50.295Z,100682.00
2023-02-14T20:14:50.363Z,100684.60
2023-02-14T20:17:18.117Z,100682.00
2023-02-14T20:19:45.000Z,100682.40
2023-02-14T20:22:11.548Z,100684.80
2023-02-14T20:24:38.192Z,100683.40
2023-02-14T20:27:04.693Z,100683.80
2023-02-14T20:29:31.920Z,100681.40
2023-02-14T20:32:01.452Z,100679.00
2023-02-14T20:34:29.541Z,100683.40
2023-02-14T20:36:56.406Z,100684.40
2023-02-14T20:39:32.393Z,100679.20
2023-02-14T20:42:00.408Z,100682.60
2023-02-14T20:44:27.563Z,100684.40
2023-02-14T20:46:56.126Z,100686.20
2023-02-14T20:49:25.245Z,100683.80
2023-02-14T20:51:52.697Z,100680.80
2023-02-14T20:54:22.882Z,100687.40
2023-02-14T20:56:50.782Z,100686.80
2023-02-14T20:59:26.876Z,100684.20
2023-02-14T21:01:56.022Z,100685.80
2023-02-14T21:04:23.713Z,100686.00
2023-02-14T21:06:50.429Z,100685.20
2023-02-14T21:09:18.698Z,100686.00
2023-02-14T21:11:45.323Z,100682.00
2023-02-14T21:14:12.106Z,100687.00
2023-02-14T21:16:38.781Z,100683.60
2023-02-14T21:19:05.883Z,100682.00
2023-02-14T21:21:36.534Z,100677.20
2023-02-14T21:24:14.583Z,100672.60
2023-02-14T21:26:42.728Z,100673.20
2023-02-14T21:29:10.363Z,100672.20
2023-02-14T21:31:38.613Z,100664.60
2023-02-14T21:34:05.635Z,100662.00
2023-02-14T21:36:36.968Z,100660.40
2023-02-14T21:39:05.878Z,100659.20
2023-02-14T21:41:34.025Z,100655.20
2023-02-14T21:44:02.055Z,100653.20
2023-02-14T21:46:33.571Z,100661.00
2023-02-14T21:49:21.288Z,100659.00
2023-02-14T21:51:48.651Z,100657.60
2023-02-14T21:54:15.985Z,100658.00
2023-02-14T21:56:43.107Z,100654.60
2023-02-14T21:59:10.446Z,100653.40
2023-02-14T22:01:39.774Z,100650.40
2023-02-14T22:04:09.779Z,100652.60
2023-02-14T22:06:39.073Z,100650.00
2023-02-14T22:09:06.929Z,100650.60
2023-02-14T22:11:34.215Z,100645.40
2023-02-14T22:14:00.834Z,100647.00
2023-02-14T22:16:27.453Z,100646.20
2023-02-14T22:18:54.174Z,100647.80
2023-02-14T22:21:24.025Z,100644.80
2023-02-14T22:23:51.099Z,100642.60
2023-02-14T22:26:25.937Z,100644.80
2023-02-14T22:28:56.989Z,100644.40
2023-02-14T22:31:25.603Z,100651.60
2023-02-14T22:33:52.671Z,100647.40
2023-02-14T22:36:19.995Z,100650.20
2023-02-14T22:38:46.595Z,100648.20
2023-02-14T22:41:19.413Z,100651.80
2023-02-14T22:43:46.440Z,100654.40
2023-02-14T22:46:19.868Z,100651.00
2023-02-14T22:48:48.545Z,100653.60
2023-02-14T22:51:26.517Z,100649.60
2023-02-14T22:54:02.863Z,100650.00
2023-02-14T22:56:38.687Z,100645.20
2023-02-14T22:59:16.942Z,100646.80
2023-02-14T23:01:43.775Z,100644.60
2023-02-14T23:04:10.627Z,100643.80
2023-02-14T23:06:38.041Z,100643.20
2023-02-14T23:09:07.896Z,100639.40
2023-02-14T23:11:37.654Z,100642.20
2023-02-14T23:14:24.499Z,100636.00
2023-02-14T23:17:10.300Z,100635.80
2023-02-14T23:19:56.213Z,100632.00
2023-02-14T23:22:25.863Z,100631.00
2023-02-14T23:24:57.151Z,100627.00
2023-02-14T23:27:44.089Z,100623.60
2023-02-14T23:30:16.231Z,100625.00
2023-02-14T23:32:43.447Z,100626.60
2023-02-14T23:35:10.624Z,100625.00
2023-02-14T23:37:37.283Z,100623.20
2023-02-14T23:40:04.602Z,100619.60
2023-02-14T23:42:31.108Z,100618.40
2023-02-14T23:45:17.574Z,100624.80
2023-02-14T23:47:43.930Z,100620.20
2023-02-14T23:50:10.753Z,100619.00
2023-02-14T23:52:41.520Z,100617.40
2023-02-14T23:55:09.096Z,100621.00
2023-02-14T23:57:35.722Z,100621.40
